sensor_id;sensor_type;location;lat;lon;timestamp;pressure;altitude;pressure_sealevel;temperature;humidity
61488;BME280;47351;53.326;-6.298;2022-08-19T00:01:15;100827.89;;;14.52;61.73
61488;BME280;47351;53.326;-6.298;2022-08-19T00:04:17;100831.98;;;14.46;62.04
61488;BME280;47351;53.326;-6.298;2022-08-19T00:06:48;100829.11;;;14.41;61.95
61488;BME280;47351;53.326;-6.298;2022-08-19T00:09:56;100834.95;;;14.35;62.25
61488;BME280;47351;53.326;-6.298;2022-08-19T00:12:35;100839.66;;;14.32;62.30
61488;BME280;47351;53.326;-6.298;2022-08-19T00:15:53;100839.04;;;14.28;62.71
61488;BME280;47351;53.326;-6.298;2022-08-19T00:18:34;100837.63;;;14.25;62.69
61488;BME280;47351;53.326;-6.298;2022-08-19T00:21:24;100840.73;;;14.21;63.03
61488;BME280;47351;53.326;-6.298;2022-08-19T00:24:08;100843.00;;;14.18;63.11
61488;BME280;47351;53.326;-6.298;2022-08-19T00:27:16;100845.84;;;14.15;63.46
61488;BME280;47351;53.326;-6.298;2022-08-19T00:29:55;100844.88;;;14.12;63.79
61488;BME280;47351;53.326;-6.298;2022-08-19T00:33:04;100847.83;;;14.13;64.17
61488;BME280;47351;53.326;-6.298;2022-08-19T00:36:05;100853.55;;;14.13;64.29
61488;BME280;47351;53.326;-6.298;2022-08-19T00:39:14;100850.13;;;14.12;64.61
61488;BME280;47351;53.326;-6.298;2022-08-19T00:42:23;100847.27;;;14.08;64.76
61488;BME280;47351;53.326;-6.298;2022-08-19T00:45:33;100848.79;;;14.06;64.90
61488;BME280;47351;53.326;-6.298;2022-08-19T00:48:16;100852.02;;;14.05;65.20
61488;BME280;47351;53.326;-6.298;2022-08-19T00:51:05;100854.39;;;14.03;65.36
61488;BME280;47351;53.326;-6.298;2022-08-19T00:54:13;100859.28;;;14.01;65.33
61488;BME280;47351;53.326;-6.298;2022-08-19T00:57:23;100854.38;;;14.00;65.63
61488;BME280;47351;53.326;-6.298;2022-08-19T01:00:16;100853.84;;;13.98;65.60
61488;BME280;47351;53.326;-6.298;2022-08-19T01:03:09;100845.41;;;13.95;65.60
61488;BME280;47351;53.326;-6.298;2022-08-19T01:06:17;100845.42;;;13.94;65.88
61488;BME280;47351;53.326;-6.298;2022-08-19T01:09:08;100842.28;;;13.91;66.02
61488;BME280;47351;53.326;-6.298;2022-08-19T01:12:16;100842.63;;;13.88;66.00
61488;BME280;47351;53.326;-6.298;2022-08-19T01:15:25;100848.73;;;13.87;66.41
61488;BME280;47351;53.326;-6.298;2022-08-19T01:18:35;100849.48;;;13.85;66.66
61488;BME280;47351;53.326;-6.298;2022-08-19T01:21:46;100851.77;;;13.83;66.67
61488;BME280;47351;53.326;-6.298;2022-08-19T01:24:57;100857.91;;;13.82;66.72
61488;BME280;47351;53.326;-6.298;2022-08-19T01:28:06;100858.23;;;13.80;66.83
61488;BME280;47351;53.326;-6.298;2022-08-19T01:31:00;100858.48;;;13.80;66.95
61488;BME280;47351;53.326;-6.298;2022-08-19T01:34:15;100859.63;;;13.79;66.90
61488;BME280;47351;53.326;-6.298;2022-08-19T01:37:23;100864.17;;;13.79;67.19
61488;BME280;47351;53.326;-6.298;2022-08-19T01:39:59;100856.13;;;13.77;67.30
61488;BME280;47351;53.326;-6.298;2022-08-19T01:42:50;100859.17;;;13.75;67.27
61488;BME280;47351;53.326;-6.298;2022-08-19T01:46:00;100861.63;;;13.74;67.40
61488;BME280;47351;53.326;-6.298;2022-08-19T01:48:59;100864.22;;;13.73;67.58
61488;BME280;47351;53.326;-6.298;2022-08-19T01:51:56;100859.81;;;13.75;67.89
61488;BME280;47351;53.326;-6.298;2022-08-19T01:54:38;100862.10;;;13.76;67.91
61488;BME280;47351;53.326;-6.298;2022-08-19T01:57:47;100856.39;;;13.79;67.97
61488;BME280;47351;53.326;-6.298;2022-08-19T02:00:40;100858.98;;;13.80;67.94
61488;BME280;47351;53.326;-6.298;2022-08-19T02:03:27;100858.33;;;13.83;68.07
61488;BME280;47351;53.326;-6.298;2022-08-19T02:06:24;100865.91;;;13.87;68.12
61488;BME280;47351;53.326;-6.298;2022-08-19T02:09:16;100867.81;;;13.90;68.00
61488;BME280;47351;53.326;-6.298;2022-08-19T02:12:13;100867.20;;;13.95;68.20
61488;BME280;47351;53.326;-6.298;2022-08-19T02:15:04;100868.29;;;13.98;68.08
61488;BME280;47351;53.326;-6.298;2022-08-19T02:17:55;100865.79;;;13.99;67.89
61488;BME280;47351;53.326;-6.298;2022-08-19T02:21:04;100869.16;;;14.02;68.03
61488;BME280;47351;53.326;-6.298;2022-08-19T02:24:02;100874.54;;;14.04;68.05
61488;BME280;47351;53.326;-6.298;2022-08-19T02:26:50;100873.91;;;14.02;67.94
61488;BME280;47351;53.326;-6.298;2022-08-19T02:29:38;100869.60;;;13.97;67.96
61488;BME280;47351;53.326;-6.298;2022-08-19T02:32:41;100866.36;;;13.92;67.93
61488;BME280;47351;53.326;-6.298;2022-08-19T02:35:34;100868.07;;;13.87;68.14
61488;BME280;47351;53.326;-6.298;2022-08-19T02:38:24;100865.25;;;13.83;68.27
61488;BME280;47351;53.326;-6.298;2022-08-19T02:41:12;100868.06;;;13.81;68.40
61488;BME280;47351;53.326;-6.298;2022-08-19T02:44:09;100864.95;;;13.78;68.76
61488;BME280;47351;53.326;-6.298;2022-08-19T02:47:38;100855.60;;;13.77;68.87
61488;BME280;47351;53.326;-6.298;2022-08-19T02:50:46;100852.55;;;13.75;69.09
61488;BME280;47351;53.326;-6.298;2022-08-19T02:53:53;100843.48;;;13.75;69.21
61488;BME280;47351;53.326;-6.298;2022-08-19T02:56:55;100844.02;;;13.75;69.24
61488;BME280;47351;53.326;-6.298;2022-08-19T02:59:43;100848.58;;;13.74;69.16
61488;BME280;47351;53.326;-6.298;2022-08-19T03:02:52;100849.95;;;13.71;69.33
61488;BME280;47351;53.326;-6.298;2022-08-19T03:05:43;100854.59;;;13.68;69.47
61488;BME280;47351;53.326;-6.298;2022-08-19T03:08:36;100856.52;;;13.65;69.62
61488;BME280;47351;53.326;-6.298;2022-08-19T03:11:45;100859.45;;;13.63;69.79
61488;BME280;47351;53.326;-6.298;2022-08-19T03:14:55;100861.45;;;13.60;69.81
61488;BME280;47351;53.326;-6.298;2022-08-19T03:18:03;100860.45;;;13.58;69.89
61488;BME280;47351;53.326;-6.298;2022-08-19T03:20:55;100858.28;;;13.55;69.98
61488;BME280;47351;53.326;-6.298;2022-08-19T03:23:50;100861.06;;;13.51;70.14
61488;BME280;47351;53.326;-6.298;2022-08-19T03:26:52;100860.59;;;13.47;70.25
61488;BME280;47351;53.326;-6.298;2022-08-19T03:29:47;100861.32;;;13.44;70.49
61488;BME280;47351;53.326;-6.298;2022-08-19T03:32:56;100867.80;;;13.43;70.54
61488;BME280;47351;53.326;-6.298;2022-08-19T03:35:47;100870.13;;;13.42;70.83
61488;BME280;47351;53.326;-6.298;2022-08-19T03:38:59;100871.03;;;13.41;70.91
61488;BME280;47351;53.326;-6.298;2022-08-19T03:42:08;100864.92;;;13.40;70.66
61488;BME280;47351;53.326;-6.298;2022-08-19T03:45:37;100865.95;;;13.38;70.70
61488;BME280;47351;53.326;-6.298;2022-08-19T03:48:25;100859.63;;;13.33;70.88
61488;BME280;47351;53.326;-6.298;2022-08-19T03:51:28;100855.23;;;13.31;70.97
61488;BME280;47351;53.326;-6.298;2022-08-19T03:54:21;100849.73;;;13.29;71.20
61488;BME280;47351;53.326;-6.298;2022-08-19T03:57:12;100857.09;;;13.27;71.49
61488;BME280;47351;53.326;-6.298;2022-08-19T04:00:20;100853.63;;;13.28;71.73
61488;BME280;47351;53.326;-6.298;2022-08-19T04:03:28;100854.77;;;13.30;71.70
61488;BME280;47351;53.326;-6.298;2022-08-19T04:06:16;100848.17;;;13.31;71.75
61488;BME280;47351;53.326;-6.298;2022-08-19T04:09:26;100846.13;;;13.32;71.63
61488;BME280;47351;53.326;-6.298;2022-08-19T04:12:34;100845.92;;;13.31;71.84
61488;BME280;47351;53.326;-6.298;2022-08-19T04:15:24;100853.94;;;13.28;71.94
61488;BME280;47351;53.326;-6.298;2022-08-19T04:18:33;100854.63;;;13.27;72.01
61488;BME280;47351;53.326;-6.298;2022-08-19T04:21:24;100858.85;;;13.26;72.24
61488;BME280;47351;53.326;-6.298;2022-08-19T04:28:17;100854.64;;;13.23;72.35
61488;BME280;47351;53.326;-6.298;2022-08-19T04:31:20;100860.54;;;13.22;72.28
61488;BME280;47351;53.326;-6.298;2022-08-19T04:34:28;100856.36;;;13.20;72.45
61488;BME280;47351;53.326;-6.298;2022-08-19T04:37:39;100857.35;;;13.18;72.27
61488;BME280;47351;53.326;-6.298;2022-08-19T04:40:40;100855.45;;;13.16;72.68
61488;BME280;47351;53.326;-6.298;2022-08-19T04:44:07;100861.55;;;13.14;72.76
61488;BME280;47351;53.326;-6.298;2022-08-19T04:47:13;100854.41;;;13.12;72.75
61488;BME280;47351;53.326;-6.298;2022-08-19T04:54:13;100858.82;;;13.10;72.98
61488;BME280;47351;53.326;-6.298;2022-08-19T04:57:26;100860.14;;;13.09;73.04
61488;BME280;47351;53.326;-6.298;2022-08-19T05:04:09;100860.39;;;13.10;73.08
61488;BME280;47351;53.326;-6.298;2022-08-19T05:07:15;100867.59;;;13.12;73.08
61488;BME280;47351;53.326;-6.298;2022-08-19T05:14:18;100869.89;;;13.17;73.04
61488;BME280;47351;53.326;-6.298;2022-08-19T05:17:29;100866.70;;;13.18;72.92
61488;BME280;47351;53.326;-6.298;2022-08-19T05:20:44;100869.08;;;13.19;72.78
61488;BME280;47351;53.326;-6.298;2022-08-19T05:23:50;100873.15;;;13.19;72.66
61488;BME280;47351;53.326;-6.298;2022-08-19T05:30:25;100880.98;;;13.18;72.65
61488;BME280;47351;53.326;-6.298;2022-08-19T05:33:53;100880.00;;;13.16;72.60
61488;BME280;47351;53.326;-6.298;2022-08-19T05:40:49;100869.98;;;13.09;72.87
61488;BME280;47351;53.326;-6.298;2022-08-19T05:43:58;100874.34;;;13.07;72.98
61488;BME280;47351;53.326;-6.298;2022-08-19T05:46:55;100879.48;;;13.05;73.15
61488;BME280;47351;53.326;-6.298;2022-08-19T05:49:46;100886.27;;;13.05;73.18
61488;BME280;47351;53.326;-6.298;2022-08-19T05:52:54;100884.41;;;13.05;73.25
61488;BME280;47351;53.326;-6.298;2022-08-19T05:56:04;100886.37;;;13.07;73.33
61488;BME280;47351;53.326;-6.298;2022-08-19T05:59:13;100889.53;;;13.09;73.49
61488;BME280;47351;53.326;-6.298;2022-08-19T06:02:17;100896.14;;;13.12;73.42
61488;BME280;47351;53.326;-6.298;2022-08-19T06:05:26;100899.93;;;13.14;73.42
61488;BME280;47351;53.326;-6.298;2022-08-19T06:08:34;100905.98;;;13.16;73.30
61488;BME280;47351;53.326;-6.298;2022-08-19T06:11:24;100909.23;;;13.17;73.39
61488;BME280;47351;53.326;-6.298;2022-08-19T06:14:22;100905.91;;;13.20;73.40
61488;BME280;47351;53.326;-6.298;2022-08-19T06:17:10;100910.98;;;13.22;73.42
61488;BME280;47351;53.326;-6.298;2022-08-19T06:20:03;100909.80;;;13.26;73.43
61488;BME280;47351;53.326;-6.298;2022-08-19T06:23:02;100913.45;;;13.30;73.48
61488;BME280;47351;53.326;-6.298;2022-08-19T06:26:12;100926.58;;;13.32;73.30
61488;BME280;47351;53.326;-6.298;2022-08-19T06:29:23;100925.54;;;13.35;73.19
61488;BME280;47351;53.326;-6.298;2022-08-19T06:32:20;100934.34;;;13.38;73.06
61488;BME280;47351;53.326;-6.298;2022-08-19T06:35:29;100934.98;;;13.42;73.19
61488;BME280;47351;53.326;-6.298;2022-08-19T06:38:30;100941.77;;;13.44;73.14
61488;BME280;47351;53.326;-6.298;2022-08-19T06:41:40;100946.13;;;13.47;73.25
61488;BME280;47351;53.326;-6.298;2022-08-19T06:44:40;100948.09;;;13.54;73.31
61488;BME280;47351;53.326;-6.298;2022-08-19T06:47:55;100943.58;;;13.62;73.36
61488;BME280;47351;53.326;-6.298;2022-08-19T06:51:04;100949.35;;;13.72;73.18
61488;BME280;47351;53.326;-6.298;2022-08-19T06:53:58;100953.45;;;13.84;73.09
61488;BME280;47351;53.326;-6.298;2022-08-19T06:57:07;100953.38;;;13.96;72.79
61488;BME280;47351;53.326;-6.298;2022-08-19T06:59:59;100947.86;;;14.03;72.55
61488;BME280;47351;53.326;-6.298;2022-08-19T07:03:07;100946.16;;;14.13;72.31
61488;BME280;47351;53.326;-6.298;2022-08-19T07:06:06;100947.17;;;14.23;72.08
61488;BME280;47351;53.326;-6.298;2022-08-19T07:09:18;100949.44;;;14.33;71.88
61488;BME280;47351;53.326;-6.298;2022-08-19T07:12:29;100955.84;;;14.45;71.52
61488;BME280;47351;53.326;-6.298;2022-08-19T07:15:12;100959.61;;;14.54;70.97
61488;BME280;47351;53.326;-6.298;2022-08-19T07:17:57;100955.40;;;14.87;70.74
61488;BME280;47351;53.326;-6.298;2022-08-19T07:20:50;100962.39;;;15.15;69.80
61488;BME280;47351;53.326;-6.298;2022-08-19T07:23:40;100966.41;;;15.22;69.47
61488;BME280;47351;53.326;-6.298;2022-08-19T07:26:32;100964.50;;;15.24;68.80
61488;BME280;47351;53.326;-6.298;2022-08-19T07:29:41;100967.80;;;15.55;68.41
61488;BME280;47351;53.326;-6.298;2022-08-19T07:32:32;100975.65;;;15.86;67.64
61488;BME280;47351;53.326;-6.298;2022-08-19T07:35:06;100976.32;;;16.08;66.40
61488;BME280;47351;53.326;-6.298;2022-08-19T07:37:45;100969.05;;;16.18;65.88
61488;BME280;47351;53.326;-6.298;2022-08-19T07:40:33;100961.97;;;16.24;65.69
61488;BME280;47351;53.326;-6.298;2022-08-19T07:43:06;100962.98;;;16.61;65.15
61488;BME280;47351;53.326;-6.298;2022-08-19T07:45:50;100957.21;;;17.27;63.82
61488;BME280;47351;53.326;-6.298;2022-08-19T07:48:27;100951.69;;;17.82;62.75
61488;BME280;47351;53.326;-6.298;2022-08-19T07:50:56;100961.50;;;18.23;61.78
61488;BME280;47351;53.326;-6.298;2022-08-19T07:53:26;100965.27;;;18.43;60.70
61488;BME280;47351;53.326;-6.298;2022-08-19T07:55:59;100970.35;;;19.07;59.13
61488;BME280;47351;53.326;-6.298;2022-08-19T07:58:31;100968.96;;;19.67;58.31
61488;BME280;47351;53.326;-6.298;2022-08-19T08:01:00;100978.18;;;20.23;56.29
61488;BME280;47351;53.326;-6.298;2022-08-19T08:03:28;100980.46;;;20.44;55.76
61488;BME280;47351;53.326;-6.298;2022-08-19T08:06:11;100987.44;;;20.95;54.44
61488;BME280;47351;53.326;-6.298;2022-08-19T08:09:00;100981.46;;;21.62;52.20
61488;BME280;47351;53.326;-6.298;2022-08-19T08:11:46;100984.89;;;22.19;50.94
61488;BME280;47351;53.326;-6.298;2022-08-19T08:14:16;100985.11;;;22.71;50.01
61488;BME280;47351;53.326;-6.298;2022-08-19T08:17:01;100987.73;;;23.25;48.77
61488;BME280;47351;53.326;-6.298;2022-08-19T08:19:37;100987.51;;;23.54;47.09
61488;BME280;47351;53.326;-6.298;2022-08-19T08:22:05;100983.70;;;23.17;46.66
61488;BME280;47351;53.326;-6.298;2022-08-19T08:24:33;100981.52;;;23.31;46.99
61488;BME280;47351;53.326;-6.298;2022-08-19T08:27:03;100980.20;;;24.09;45.75
61488;BME280;47351;53.326;-6.298;2022-08-19T08:29:37;100975.83;;;24.67;44.57
61488;BME280;47351;53.326;-6.298;2022-08-19T08:32:07;100984.80;;;25.22;43.52
61488;BME280;47351;53.326;-6.298;2022-08-19T08:34:41;100981.60;;;25.20;44.03
61488;BME280;47351;53.326;-6.298;2022-08-19T08:37:09;100991.09;;;25.35;42.48
61488;BME280;47351;53.326;-6.298;2022-08-19T08:39:36;100985.38;;;24.66;42.36
61488;BME280;47351;53.326;-6.298;2022-08-19T08:42:07;100987.75;;;25.28;41.23
61488;BME280;47351;53.326;-6.298;2022-08-19T08:44:46;100985.83;;;25.03;40.76
61488;BME280;47351;53.326;-6.298;2022-08-19T08:47:21;100993.80;;;25.14;40.35
61488;BME280;47351;53.326;-6.298;2022-08-19T08:49:50;100992.56;;;25.08;40.31
61488;BME280;47351;53.326;-6.298;2022-08-19T08:52:21;100992.89;;;24.96;40.08
61488;BME280;47351;53.326;-6.298;2022-08-19T08:54:54;100993.50;;;25.55;40.03
61488;BME280;47351;53.326;-6.298;2022-08-19T08:57:27;100983.39;;;24.93;40.59
61488;BME280;47351;53.326;-6.298;2022-08-19T09:00:09;100987.67;;;25.26;40.24
61488;BME280;47351;53.326;-6.298;2022-08-19T09:02:42;100987.05;;;25.23;39.86
61488;BME280;47351;53.326;-6.298;2022-08-19T09:05:10;100980.80;;;24.82;39.68
61488;BME280;47351;53.326;-6.298;2022-08-19T09:07:45;100980.61;;;25.24;39.58
61488;BME280;47351;53.326;-6.298;2022-08-19T09:10:19;100984.02;;;24.87;39.44
61488;BME280;47351;53.326;-6.298;2022-08-19T09:12:55;100983.06;;;24.71;40.03
61488;BME280;47351;53.326;-6.298;2022-08-19T09:15:39;100981.27;;;25.68;38.88
61488;BME280;47351;53.326;-6.298;2022-08-19T09:18:15;100985.04;;;26.65;37.38
61488;BME280;47351;53.326;-6.298;2022-08-19T09:20:46;100989.17;;;27.33;36.56
61488;BME280;47351;53.326;-6.298;2022-08-19T09:23:14;100990.80;;;27.97;35.92
61488;BME280;47351;53.326;-6.298;2022-08-19T09:25:42;100980.27;;;28.57;34.96
61488;BME280;47351;53.326;-6.298;2022-08-19T09:28:10;100971.10;;;29.15;34.51
61488;BME280;47351;53.326;-6.298;2022-08-19T09:30:53;100975.61;;;29.85;33.34
61488;BME280;47351;53.326;-6.298;2022-08-19T09:33:20;100967.51;;;30.29;32.54
61488;BME280;47351;53.326;-6.298;2022-08-19T09:35:49;100982.41;;;30.02;31.89
61488;BME280;47351;53.326;-6.298;2022-08-19T09:38:23;100970.41;;;30.53;32.10
61488;BME280;47351;53.326;-6.298;2022-08-19T09:40:51;100966.90;;;30.79;31.40
61488;BME280;47351;53.326;-6.298;2022-08-19T09:43:21;100968.64;;;30.64;29.41
61488;BME280;47351;53.326;-6.298;2022-08-19T09:46:10;100964.73;;;30.60;30.07
61488;BME280;47351;53.326;-6.298;2022-08-19T09:48:38;100962.95;;;29.88;29.78
61488;BME280;47351;53.326;-6.298;2022-08-19T09:51:07;100965.85;;;28.09;31.38
61488;BME280;47351;53.326;-6.298;2022-08-19T09:53:41;100968.09;;;26.64;33.44
61488;BME280;47351;53.326;-6.298;2022-08-19T09:56:09;100969.98;;;25.52;35.30
61488;BME280;47351;53.326;-6.298;2022-08-19T09:58:38;100971.09;;;24.58;36.86
61488;BME280;47351;53.326;-6.298;2022-08-19T10:01:08;100974.77;;;23.64;38.25
61488;BME280;47351;53.326;-6.298;2022-08-19T10:03:36;100975.58;;;22.84;39.52
61488;BME280;47351;53.326;-6.298;2022-08-19T10:06:05;100978.58;;;22.18;40.80
61488;BME280;47351;53.326;-6.298;2022-08-19T10:08:43;100978.27;;;21.61;42.08
61488;BME280;47351;53.326;-6.298;2022-08-19T10:11:17;100976.10;;;21.06;43.00
61488;BME280;47351;53.326;-6.298;2022-08-19T10:14:06;100973.52;;;20.66;44.31
61488;BME280;47351;53.326;-6.298;2022-08-19T10:16:37;100981.67;;;20.47;44.94
61488;BME280;47351;53.326;-6.298;2022-08-19T10:19:19;100977.94;;;20.28;45.70
61488;BME280;47351;53.326;-6.298;2022-08-19T10:22:12;100975.92;;;20.13;46.22
61488;BME280;47351;53.326;-6.298;2022-08-19T10:24:51;100973.48;;;19.93;47.08
61488;BME280;47351;53.326;-6.298;2022-08-19T10:27:27;100978.86;;;19.63;47.77
61488;BME280;47351;53.326;-6.298;2022-08-19T10:30:02;100982.43;;;19.36;48.56
61488;BME280;47351;53.326;-6.298;2022-08-19T10:32:43;100985.02;;;19.26;49.25
61488;BME280;47351;53.326;-6.298;2022-08-19T10:35:22;100983.26;;;19.31;49.74
61488;BME280;47351;53.326;-6.298;2022-08-19T10:37:56;100981.14;;;19.34;49.81
61488;BME280;47351;53.326;-6.298;2022-08-19T10:40:36;100983.59;;;19.51;49.37
61488;BME280;47351;53.326;-6.298;2022-08-19T10:43:09;100983.60;;;19.64;48.35
61488;BME280;47351;53.326;-6.298;2022-08-19T10:45:48;100980.31;;;19.63;48.12
61488;BME280;47351;53.326;-6.298;2022-08-19T10:48:32;100986.73;;;19.69;48.09
61488;BME280;47351;53.326;-6.298;2022-08-19T10:51:05;100983.98;;;19.69;47.58
61488;BME280;47351;53.326;-6.298;2022-08-19T10:57:22;100985.41;;;19.80;47.87
61488;BME280;47351;53.326;-6.298;2022-08-19T11:00:20;100988.02;;;19.88;47.91
61488;BME280;47351;53.326;-6.298;2022-08-19T11:02:53;100992.67;;;19.89;47.82
61488;BME280;47351;53.326;-6.298;2022-08-19T11:05:22;100991.18;;;20.01;48.08
61488;BME280;47351;53.326;-6.298;2022-08-19T11:07:51;100996.09;;;20.10;47.74
61488;BME280;47351;53.326;-6.298;2022-08-19T11:10:22;100995.07;;;20.15;47.50
61488;BME280;47351;53.326;-6.298;2022-08-19T11:12:50;100993.74;;;21.04;46.34
61488;BME280;47351;53.326;-6.298;2022-08-19T11:15:28;100985.23;;;22.62;43.30
61488;BME280;47351;53.326;-6.298;2022-08-19T11:18:13;100984.56;;;24.66;40.70
61488;BME280;47351;53.326;-6.298;2022-08-19T11:20:42;100978.52;;;26.99;37.17
61488;BME280;47351;53.326;-6.298;2022-08-19T11:23:17;100974.79;;;28.76;34.21
61488;BME280;47351;53.326;-6.298;2022-08-19T11:25:48;100975.61;;;30.11;32.22
61488;BME280;47351;53.326;-6.298;2022-08-19T11:28:16;100970.64;;;31.17;30.43
61488;BME280;47351;53.326;-6.298;2022-08-19T11:30:44;100967.07;;;32.25;29.88
61488;BME280;47351;53.326;-6.298;2022-08-19T11:33:12;100962.20;;;33.09;27.91
61488;BME280;47351;53.326;-6.298;2022-08-19T11:35:40;100963.48;;;33.49;27.41
61488;BME280;47351;53.326;-6.298;2022-08-19T11:38:08;100961.36;;;34.14;26.39
61488;BME280;47351;53.326;-6.298;2022-08-19T11:40:36;100965.60;;;34.51;25.86
61488;BME280;47351;53.326;-6.298;2022-08-19T11:43:04;100953.94;;;34.67;24.94
61488;BME280;47351;53.326;-6.298;2022-08-19T11:45:33;100965.96;;;33.19;26.25
61488;BME280;47351;53.326;-6.298;2022-08-19T11:48:06;100966.92;;;32.51;26.45
61488;BME280;47351;53.326;-6.298;2022-08-19T11:50:36;100957.64;;;31.71;27.33
61488;BME280;47351;53.326;-6.298;2022-08-19T11:53:13;100961.34;;;30.73;28.15
61488;BME280;47351;53.326;-6.298;2022-08-19T11:55:41;100961.32;;;32.19;27.31
61488;BME280;47351;53.326;-6.298;2022-08-19T11:58:10;100946.42;;;33.41;25.77
61488;BME280;47351;53.326;-6.298;2022-08-19T12:00:48;100952.63;;;32.53;26.43
61488;BME280;47351;53.326;-6.298;2022-08-19T12:03:15;100961.69;;;30.92;27.69
61488;BME280;47351;53.326;-6.298;2022-08-19T12:05:46;100966.45;;;29.70;28.52
61488;BME280;47351;53.326;-6.298;2022-08-19T12:08:14;100967.84;;;28.35;30.02
61488;BME280;47351;53.326;-6.298;2022-08-19T12:10:42;100959.09;;;28.14;30.85
61488;BME280;47351;53.326;-6.298;2022-08-19T12:13:13;100952.52;;;30.20;29.21
61488;BME280;47351;53.326;-6.298;2022-08-19T12:15:49;100952.80;;;31.91;27.36
61488;BME280;47351;53.326;-6.298;2022-08-19T12:18:22;100945.39;;;32.67;26.25
61488;BME280;47351;53.326;-6.298;2022-08-19T12:20:52;100944.23;;;33.12;26.03
61488;BME280;47351;53.326;-6.298;2022-08-19T12:23:21;100940.82;;;32.35;26.43
61488;BME280;47351;53.326;-6.298;2022-08-19T12:25:49;100939.69;;;30.55;28.15
61488;BME280;47351;53.326;-6.298;2022-08-19T12:28:19;100949.29;;;28.99;29.50
61488;BME280;47351;53.326;-6.298;2022-08-19T12:30:47;100949.44;;;27.73;30.65
61488;BME280;47351;53.326;-6.298;2022-08-19T12:33:15;100951.96;;;26.55;31.41
61488;BME280;47351;53.326;-6.298;2022-08-19T12:35:43;100958.64;;;25.42;33.07
61488;BME280;47351;53.326;-6.298;2022-08-19T12:38:13;100959.86;;;24.54;34.38
61488;BME280;47351;53.326;-6.298;2022-08-19T12:40:41;100958.63;;;23.96;35.49
61488;BME280;47351;53.326;-6.298;2022-08-19T12:43:12;100957.25;;;24.56;35.29
61488;BME280;47351;53.326;-6.298;2022-08-19T12:45:42;100956.33;;;24.44;35.91
61488;BME280;47351;53.326;-6.298;2022-08-19T12:48:16;100957.14;;;24.15;36.21
61488;BME280;47351;53.326;-6.298;2022-08-19T12:51:05;100958.45;;;23.72;36.65
61488;BME280;47351;53.326;-6.298;2022-08-19T12:53:33;100962.77;;;23.34;37.20
61488;BME280;47351;53.326;-6.298;2022-08-19T12:56:09;100957.80;;;22.95;37.54
61488;BME280;47351;53.326;-6.298;2022-08-19T12:58:43;100958.76;;;22.68;38.27
61488;BME280;47351;53.326;-6.298;2022-08-19T13:01:20;100956.42;;;22.48;38.99
61488;BME280;47351;53.326;-6.298;2022-08-19T13:03:49;100956.12;;;22.29;39.12
61488;BME280;47351;53.326;-6.298;2022-08-19T13:06:29;100953.58;;;22.10;39.60
61488;BME280;47351;53.326;-6.298;2022-08-19T13:09:07;100949.00;;;22.17;39.98
61488;BME280;47351;53.326;-6.298;2022-08-19T13:11:36;100953.80;;;22.44;39.74
61488;BME280;47351;53.326;-6.298;2022-08-19T13:14:06;100955.27;;;22.47;39.79
61488;BME280;47351;53.326;-6.298;2022-08-19T13:16:39;100961.81;;;22.34;40.02
61488;BME280;47351;53.326;-6.298;2022-08-19T13:19:15;100960.71;;;22.18;40.32
61488;BME280;47351;53.326;-6.298;2022-08-19T13:21:50;100960.26;;;22.12;40.48
61488;BME280;47351;53.326;-6.298;2022-08-19T13:24:27;100959.40;;;22.39;40.18
61488;BME280;47351;53.326;-6.298;2022-08-19T13:27:00;100965.30;;;22.71;39.98
61488;BME280;47351;53.326;-6.298;2022-08-19T13:29:33;100960.92;;;23.34;39.04
61488;BME280;47351;53.326;-6.298;2022-08-19T13:32:29;100953.70;;;24.98;36.84
61488;BME280;47351;53.326;-6.298;2022-08-19T13:35:19;100944.64;;;25.28;36.42
61488;BME280;47351;53.326;-6.298;2022-08-19T13:37:49;100943.13;;;25.13;36.48
61488;BME280;47351;53.326;-6.298;2022-08-19T13:40:18;100941.16;;;24.95;36.24
61488;BME280;47351;53.326;-6.298;2022-08-19T13:42:47;100935.45;;;25.14;36.03
61488;BME280;47351;53.326;-6.298;2022-08-19T13:45:19;100933.29;;;26.59;34.19
61488;BME280;47351;53.326;-6.298;2022-08-19T13:47:50;100933.95;;;27.58;33.35
61488;BME280;47351;53.326;-6.298;2022-08-19T13:50:25;100931.69;;;27.84;32.33
61488;BME280;47351;53.326;-6.298;2022-08-19T13:52:55;100928.69;;;27.61;32.06
61488;BME280;47351;53.326;-6.298;2022-08-19T13:55:23;100933.67;;;27.11;32.48
61488;BME280;47351;53.326;-6.298;2022-08-19T13:57:52;100934.07;;;26.50;33.33
61488;BME280;47351;53.326;-6.298;2022-08-19T14:00:21;100929.85;;;26.90;32.92
61488;BME280;47351;53.326;-6.298;2022-08-19T14:02:50;100931.95;;;26.78;32.79
61488;BME280;47351;53.326;-6.298;2022-08-19T14:05:18;100939.02;;;26.55;33.05
61488;BME280;47351;53.326;-6.298;2022-08-19T14:07:46;100932.09;;;26.68;33.06
61488;BME280;47351;53.326;-6.298;2022-08-19T14:10:15;100936.05;;;27.43;31.78
61488;BME280;47351;53.326;-6.298;2022-08-19T14:12:43;100936.44;;;26.79;32.40
61488;BME280;47351;53.326;-6.298;2022-08-19T14:15:14;100942.52;;;25.88;33.30
61488;BME280;47351;53.326;-6.298;2022-08-19T14:17:42;100942.88;;;25.29;34.13
61488;BME280;47351;53.326;-6.298;2022-08-19T14:20:11;100932.60;;;25.75;34.11
61488;BME280;47351;53.326;-6.298;2022-08-19T14:22:45;100938.16;;;25.69;34.11
61488;BME280;47351;53.326;-6.298;2022-08-19T14:25:16;100943.00;;;25.81;33.89
61488;BME280;47351;53.326;-6.298;2022-08-19T14:27:45;100936.96;;;25.40;34.84
61488;BME280;47351;53.326;-6.298;2022-08-19T14:30:15;100941.64;;;24.88;35.48
61488;BME280;47351;53.326;-6.298;2022-08-19T14:32:44;100948.18;;;24.23;36.39
61488;BME280;47351;53.326;-6.298;2022-08-19T14:35:12;100953.77;;;23.70;37.41
61488;BME280;47351;53.326;-6.298;2022-08-19T14:37:44;100961.98;;;23.18;38.30
61488;BME280;47351;53.326;-6.298;2022-08-19T14:40:13;100978.35;;;22.71;40.04
61488;BME280;47351;53.326;-6.298;2022-08-19T14:42:42;100987.38;;;22.22;43.11